Time;durP1;ratioP1;P1;durP2;ratioP2;P2;SDS_P1;SDS_P2;PMS_P1;PMS_P2;Temp;Humidity;BMP_temperature;BMP_pressure;BME280_temperature;BME280_humidity;BME280_pressure;Samples;Min_cycle;Max_cycle;Signal;HPM_P1;HPM_P2
2022/12/26 00:00:16;;;;;;;266.25;44.38;;;7.90;99.90;;;;;;5051351;28;20147;-46
2022/12/26 00:02:42;;;;;;;308.55;48.83;;;7.90;99.90;;;;;;5050723;28;20533;-48
2022/12/26 00:05:08;;;;;;;304.80;47.83;;;7.70;99.90;;;;;;5051270;28;20143;-47
2022/12/26 00:07:33;;;;;;;268.00;44.25;;;7.80;99.90;;;;;;5064529;28;20142;-49
2022/12/26 00:09:59;;;;;;;243.20;44.25;;;7.90;99.90;;;;;;5129005;27;20548;-47
2022/12/26 00:12:25;;;;;;;250.00;43.80;;;7.70;99.90;;;;;;5114527;27;20100;-45
2022/12/26 00:14:50;;;;;;;229.63;43.10;;;7.90;99.90;;;;;;5096497;28;20062;-46
2022/12/26 00:17:16;;;;;;;233.32;44.28;;;7.90;99.90;;;;;;5096851;28;20113;-48
2022/12/26 00:19:42;;;;;;;247.93;42.60;;;7.90;99.90;;;;;;5134607;27;20055;-46
2022/12/26 00:22:08;;;;;;;253.90;42.97;;;7.90;99.90;;;;;;5122579;27;20054;-46
2022/12/26 00:24:33;;;;;;;269.92;46.10;;;7.80;99.90;;;;;;5127719;27;20087;-49
2022/12/26 00:26:59;;;;;;;358.20;50.80;;;8.00;99.90;;;;;;5135876;27;20323;-47
2022/12/26 00:29:25;;;;;;;339.90;49.10;;;7.70;99.90;;;;;;5115307;27;20047;-44
2022/12/26 00:31:50;;;;;;;236.95;44.22;;;8.00;99.90;;;;;;5114617;27;20073;-47
2022/12/26 00:34:16;;;;;;;294.48;48.90;;;8.00;99.90;;;;;;5120879;27;20468;-47
2022/12/26 00:36:42;;;;;;;283.65;46.95;;;7.80;99.90;;;;;;5124924;27;20043;-45
2022/12/26 00:39:11;;;;;;;221.32;42.63;;;7.90;99.90;;;;;;5119089;27;20126;-48
2022/12/26 00:41:37;;;;;;;201.98;39.10;;;8.00;99.90;;;;;;5119200;27;20047;-47
2022/12/26 00:44:03;;;;;;;203.45;40.63;;;7.80;99.90;;;;;;5117847;27;20094;-49
2022/12/26 00:46:28;;;;;;;170.23;38.40;;;7.80;99.90;;;;;;5119689;27;20485;-46
2022/12/26 00:48:54;;;;;;;197.65;38.58;;;7.80;99.90;;;;;;5132698;27;20047;-47
2022/12/26 00:51:20;;;;;;;191.52;39.28;;;8.00;99.90;;;;;;5118937;27;20405;-50
2022/12/26 00:53:46;;;;;;;173.90;37.47;;;7.80;99.90;;;;;;5100693;27;20630;-46
2022/12/26 00:56:12;;;;;;;174.25;35.83;;;7.80;99.90;;;;;;5119387;27;20104;-45
2022/12/26 00:58:39;;;;;;;161.93;34.58;;;8.00;99.90;;;;;;5125616;27;20053;-50
2022/12/26 01:01:12;;;;;;;194.55;35.63;;;7.80;99.90;;;;;;5126253;27;20083;-48
2022/12/26 01:03:38;;;;;;;211.88;38.13;;;7.80;99.90;;;;;;5103941;27;20063;-49
2022/12/26 01:06:04;;;;;;;223.13;39.25;;;8.00;99.90;;;;;;5138323;27;20042;-45
2022/12/26 01:08:31;;;;;;;272.90;42.33;;;7.80;99.90;;;;;;5140304;27;20070;-50
2022/12/26 01:11:00;;;;;;;258.10;40.10;;;7.80;99.90;;;;;;5104188;27;20461;-46
2022/12/26 01:13:26;;;;;;;275.35;42.55;;;7.90;99.90;;;;;;5126414;27;20058;-48
2022/12/26 01:15:52;;;;;;;275.80;43.50;;;8.00;99.90;;;;;;5120228;27;20051;-45
2022/12/26 01:18:19;;;;;;;243.90;39.95;;;7.80;99.90;;;;;;5099954;27;20511;-46
2022/12/26 01:20:45;;;;;;;256.88;41.05;;;7.80;99.90;;;;;;5100070;27;20558;-44
2022/12/26 01:23:11;;;;;;;222.55;39.90;;;7.90;99.90;;;;;;5118569;27;20549;-46
2022/12/26 01:25:38;;;;;;;191.85;36.92;;;7.80;99.90;;;;;;5133404;27;20062;-47
2022/12/26 01:28:04;;;;;;;195.43;38.00;;;8.00;99.90;;;;;;5112332;27;20099;-45
2022/12/26 01:30:30;;;;;;;152.15;35.10;;;7.90;99.90;;;;;;5118766;27;20489;-47
2022/12/26 01:32:56;;;;;;;176.93;36.53;;;8.00;99.90;;;;;;5118247;27;20042;-45
2022/12/26 01:35:22;;;;;;;138.20;33.95;;;7.80;99.90;;;;;;5134083;27;20054;-45
2022/12/26 01:37:47;;;;;;;101.47;30.70;;;7.90;99.90;;;;;;5119763;27;20597;-47
2022/12/26 01:40:13;;;;;;;136.75;35.60;;;8.00;99.90;;;;;;5123707;27;20054;-46
2022/12/26 01:42:40;;;;;;;137.82;33.17;;;8.00;99.90;;;;;;5117765;27;20047;-46
2022/12/26 01:45:28;;;;;;;110.97;31.00;;;7.90;99.90;;;;;;5119786;27;20151;-48
2022/12/26 01:48:04;;;;;;;112.75;31.65;;;8.00;99.90;;;;;;5127441;27;20050;-47
2022/12/26 01:50:40;;;;;;;100.53;29.25;;;7.90;99.90;;;;;;5137854;27;20104;-47
2022/12/26 01:53:14;;;;;;;81.97;26.25;;;7.80;99.90;;;;;;5138152;27;20047;-45
2022/12/26 01:55:42;;;;;;;71.03;26.38;;;7.90;99.90;;;;;;5138929;27;20046;-45
2022/12/26 01:58:13;;;;;;;83.78;28.50;;;8.00;99.90;;;;;;5137157;27;20051;-45
2022/12/26 02:00:39;;;;;;;83.30;29.88;;;7.90;99.90;;;;;;5109146;27;20034;-45
2022/12/26 02:05:55;;;;;;;89.07;33.53;;;8.10;99.90;;;;;;5138445;27;20058;-48
2022/12/26 02:08:24;;;;;;;94.18;36.17;;;8.10;99.90;;;;;;5097763;27;20507;-45
2022/12/26 02:10:55;;;;;;;98.97;36.30;;;8.00;99.90;;;;;;5118413;27;20043;-45
2022/12/26 02:13:22;;;;;;;98.10;37.47;;;8.10;99.90;;;;;;5124004;27;20524;-49
2022/12/26 02:15:48;;;;;;;92.05;38.10;;;8.20;99.90;;;;;;5138988;27;20079;-48
2022/12/26 02:18:14;;;;;;;96.07;36.00;;;8.20;99.90;;;;;;5082494;27;20067;-47
2022/12/26 02:21:08;;;;;;;104.10;38.65;;;8.30;99.90;;;;;;5112884;27;20534;-45
2022/12/26 02:23:49;;;;;;;103.43;38.47;;;8.10;99.90;;;;;;5132925;27;20055;-45
2022/12/26 02:26:47;;;;;;;102.78;37.50;;;8.30;99.90;;;;;;5082470;27;20078;-47
2022/12/26 02:29:34;;;;;;;100.40;36.88;;;8.30;99.90;;;;;;5117270;27;20422;-47
2022/12/26 02:32:31;;;;;;;98.32;36.33;;;8.30;99.90;;;;;;5116917;27;20450;-46
2022/12/26 02:35:00;;;;;;;101.32;38.85;;;8.20;99.90;;;;;;5117636;27;20623;-47
2022/12/26 02:37:56;;;;;;;103.25;38.00;;;8.30;99.90;;;;;;5117141;27;20050;-44
2022/12/26 02:40:33;;;;;;;102.55;40.25;;;8.20;99.90;;;;;;5116842;27;20401;-45
2022/12/26 02:43:23;;;;;;;99.80;39.03;;;8.20;99.90;;;;;;5098517;27;20043;-47
2022/12/26 02:49:14;;;;;;;113.57;41.95;;;8.50;99.90;;;;;;5116381;27;20061;-47
2022/12/26 03:14:58;;;;;;;103.30;39.65;;;8.20;99.90;;;;;;5122501;27;20409;-48
2022/12/26 03:17:30;;;;;;;99.50;41.63;;;8.20;99.90;;;;;;5137219;27;20043;-48
2022/12/26 03:20:07;;;;;;;105.53;39.88;;;8.00;99.90;;;;;;5129609;27;20062;-46
2022/12/26 03:22:45;;;;;;;109.78;39.95;;;8.20;99.90;;;;;;5130353;27;20749;-46
2022/12/26 03:28:07;;;;;;;105.97;40.60;;;8.10;99.90;;;;;;5098172;27;20111;-50
2022/12/26 03:30:48;;;;;;;110.22;39.60;;;8.10;99.90;;;;;;5115770;27;20099;-51
2022/12/26 03:36:48;;;;;;;98.88;39.67;;;8.20;99.90;;;;;;5116046;27;20801;-47
2022/12/26 04:20:54;;;;;;;70.65;35.70;;;8.30;99.90;;;;;;5115304;27;20461;-47
2022/12/26 04:46:25;;;;;;;66.10;34.45;;;8.00;99.90;;;;;;5011463;28;20323;-49
2022/12/26 04:51:37;;;;;;;62.15;35.28;;;8.00;99.90;;;;;;5010388;28;20471;-48
2022/12/26 04:54:03;;;;;;;57.17;34.20;;;8.10;99.90;;;;;;5011269;28;20049;-49
2022/12/26 04:56:29;;;;;;;55.47;32.65;;;8.00;99.90;;;;;;5010980;28;20611;-47
2022/12/26 04:58:55;;;;;;;58.95;33.38;;;7.80;99.90;;;;;;4995275;28;20141;-45
2022/12/26 05:09:34;;;;;;;54.67;31.52;;;7.90;99.90;;;;;;5114266;27;20193;-48
2022/12/26 05:12:01;;;;;;;58.00;35.45;;;7.70;99.90;;;;;;5114080;27;20051;-45
2022/12/26 05:14:28;;;;;;;58.22;35.03;;;7.90;99.90;;;;;;5112778;27;20134;-47
2022/12/26 05:31:00;;;;;;;65.43;39.15;;;7.90;99.90;;;;;;5139509;27;20046;-45
2022/12/26 05:36:13;;;;;;;61.95;36.45;;;8.10;99.90;;;;;;5119370;27;20386;-45
2022/12/26 05:38:39;;;;;;;61.58;38.10;;;8.10;99.90;;;;;;5134481;27;20107;-47
2022/12/26 05:41:05;;;;;;;57.30;35.63;;;7.90;99.90;;;;;;5139763;27;20068;-43
2022/12/26 05:43:31;;;;;;;60.47;35.25;;;8.20;99.90;;;;;;5108901;27;20066;-49
2022/12/26 05:45:57;;;;;;;52.05;33.15;;;8.00;99.90;;;;;;5110238;27;20043;-47
2022/12/26 05:48:23;;;;;;;51.30;33.60;;;8.00;99.90;;;;;;5117419;27;20047;-50
2022/12/26 05:50:48;;;;;;;48.22;33.00;;;8.00;99.90;;;;;;5099667;27;20053;-47
2022/12/26 05:53:14;;;;;;;46.75;32.47;;;8.10;99.90;;;;;;5117023;27;20131;-45
2022/12/26 05:55:40;;;;;;;44.17;31.90;;;8.30;99.90;;;;;;5128165;27;20507;-44
2022/12/26 05:58:05;;;;;;;44.83;31.55;;;8.20;99.90;;;;;;5121242;27;20047;-49
2022/12/26 06:00:31;;;;;;;44.55;31.83;;;8.40;99.90;;;;;;5128213;27;20075;-49
2022/12/26 06:03:01;;;;;;;41.28;29.55;;;8.10;99.90;;;;;;5134944;27;20046;-49
2022/12/26 06:05:27;;;;;;;38.42;29.55;;;8.20;99.90;;;;;;5126261;27;20452;-49
2022/12/26 06:07:53;;;;;;;34.95;27.40;;;8.20;99.90;;;;;;5136770;27;20137;-47
2022/12/26 06:10:19;;;;;;;37.17;26.80;;;8.10;99.90;;;;;;5126122;27;20073;-48
2022/12/26 06:12:45;;;;;;;37.05;26.83;;;8.40;99.90;;;;;;5137696;27;20134;-45
2022/12/26 06:15:11;;;;;;;38.10;28.02;;;8.30;99.90;;;;;;5130176;27;20050;-46
2022/12/26 06:17:38;;;;;;;34.15;27.23;;;8.30;99.90;;;;;;5133739;27;20085;-48
2022/12/26 06:20:04;;;;;;;36.22;26.67;;;8.40;99.90;;;;;;5138216;27;20109;-47
2022/12/26 06:22:30;;;;;;;31.80;25.50;;;8.50;99.90;;;;;;5123163;27;20043;-48
2022/12/26 06:24:56;;;;;;;33.42;25.17;;;8.40;99.90;;;;;;5122211;27;20047;-45
2022/12/26 06:27:21;;;;;;;31.02;24.73;;;8.40;99.90;;;;;;5131936;27;20549;-47
2022/12/26 06:29:47;;;;;;;31.30;23.05;;;8.20;99.90;;;;;;5107811;27;20049;-48
2022/12/26 06:32:13;;;;;;;29.95;21.83;;;8.20;99.90;;;;;;5138422;27;20047;-45
2022/12/26 06:34:39;;;;;;;29.10;22.38;;;8.30;99.90;;;;;;5128554;27;20051;-49
2022/12/26 06:37:05;;;;;;;31.17;21.50;;;8.30;99.90;;;;;;5117827;27;20053;-44
2022/12/26 06:39:30;;;;;;;30.55;21.50;;;8.10;99.90;;;;;;5099418;27;20493;-46
2022/12/26 06:41:56;;;;;;;26.88;20.38;;;8.20;99.90;;;;;;5116890;27;20051;-47
2022/12/26 06:44:22;;;;;;;29.40;19.20;;;8.20;99.90;;;;;;5129266;27;20107;-44
2022/12/26 06:46:47;;;;;;;22.50;18.85;;;8.20;99.90;;;;;;5099913;27;20407;-47
2022/12/26 06:49:13;;;;;;;28.83;20.65;;;8.10;99.90;;;;;;5137856;27;20046;-47
2022/12/26 06:51:39;;;;;;;25.27;17.85;;;8.00;99.90;;;;;;5121674;27;20043;-49
2022/12/26 06:54:05;;;;;;;22.25;15.57;;;8.20;99.90;;;;;;5107749;27;20076;-47
2022/12/26 06:56:32;;;;;;;24.15;16.35;;;8.00;99.90;;;;;;5138382;27;20050;-47
2022/12/26 06:59:03;;;;;;;20.05;15.82;;;8.10;99.90;;;;;;5118987;27;20059;-46
2022/12/26 07:01:31;;;;;;;20.90;13.90;;;8.10;99.90;;;;;;5134532;27;20059;-49
2022/12/26 07:03:57;;;;;;;25.05;14.63;;;8.20;99.90;;;;;;5117508;27;20039;-48
2022/12/26 07:06:29;;;;;;;19.55;13.85;;;8.10;99.90;;;;;;5130562;27;20055;-47
2022/12/26 07:09:03;;;;;;;19.00;12.88;;;8.00;99.90;;;;;;5116975;27;20078;-47
2022/12/26 07:11:34;;;;;;;21.98;13.98;;;8.00;99.90;;;;;;5134736;27;20034;-46
2022/12/26 07:14:00;;;;;;;21.02;14.48;;;8.10;99.90;;;;;;5137542;27;20054;-51
2022/12/26 07:16:26;;;;;;;19.20;12.23;;;8.10;99.90;;;;;;5131719;27;20051;-46
2022/12/26 07:18:55;;;;;;;20.83;13.13;;;8.00;99.90;;;;;;5081360;27;20100;-45
2022/12/26 07:21:22;;;;;;;17.95;12.25;;;8.10;99.90;;;;;;5110928;27;20519;-45
2022/12/26 07:23:49;;;;;;;18.27;13.43;;;7.90;99.90;;;;;;5122749;27;20134;-48
2022/12/26 07:26:14;;;;;;;18.15;12.82;;;7.90;99.90;;;;;;5122888;27;20057;-44
2022/12/26 07:28:40;;;;;;;17.95;11.63;;;7.90;99.90;;;;;;5122735;27;20055;-48
2022/12/26 07:31:06;;;;;;;19.90;12.65;;;8.00;99.90;;;;;;5123221;27;20038;-45
2022/12/26 07:33:33;;;;;;;22.83;12.07;;;8.10;99.90;;;;;;5136499;27;20117;-47
2022/12/26 07:36:00;;;;;;;19.05;12.32;;;8.10;99.90;;;;;;5112215;27;20498;-48
2022/12/26 07:38:25;;;;;;;16.30;11.63;;;8.00;99.90;;;;;;5130594;27;20086;-47
2022/12/26 07:40:55;;;;;;;18.73;11.30;;;8.00;99.90;;;;;;5130477;27;20453;-49
2022/12/26 07:43:20;;;;;;;17.70;11.30;;;8.00;99.90;;;;;;5127678;27;20046;-47
2022/12/26 07:45:46;;;;;;;15.77;10.93;;;8.10;99.90;;;;;;5128796;27;20112;-46
2022/12/26 07:48:12;;;;;;;18.55;11.23;;;8.20;99.90;;;;;;5116456;27;20047;-45
2022/12/26 07:50:37;;;;;;;14.75;9.90;;;8.20;99.90;;;;;;5110807;27;20544;-45
2022/12/26 07:53:03;;;;;;;12.88;9.25;;;8.10;99.90;;;;;;5096729;27;20047;-51
2022/12/26 07:55:29;;;;;;;18.88;9.25;;;8.30;99.90;;;;;;5098274;27;20055;-47
2022/12/26 07:57:54;;;;;;;14.02;9.13;;;8.20;99.90;;;;;;5115895;27;20138;-47
2022/12/26 08:00:20;;;;;;;14.75;8.60;;;8.20;99.90;;;;;;5128488;27;20123;-47
2022/12/26 08:02:50;;;;;;;12.18;9.10;;;8.10;99.90;;;;;;5129528;27;20135;-47
2022/12/26 08:05:16;;;;;;;15.05;9.10;;;8.10;99.90;;;;;;5136198;27;20044;-46
2022/12/26 08:07:45;;;;;;;14.00;8.90;;;8.10;99.90;;;;;;5117669;27;20186;-47
2022/12/26 08:10:10;;;;;;;11.05;8.02;;;8.20;99.90;;;;;;5136974;27;20042;-45
2022/12/26 08:12:36;;;;;;;14.98;9.32;;;8.10;99.90;;;;;;5119400;27;20102;-45
2022/12/26 08:15:02;;;;;;;11.63;8.68;;;8.20;99.90;;;;;;5118297;27;20154;-47
2022/12/26 08:17:30;;;;;;;13.82;9.90;;;8.20;99.90;;;;;;5110833;27;20054;-46
2022/12/26 08:19:55;;;;;;;17.98;11.50;;;8.20;99.90;;;;;;5114819;27;20043;-49
2022/12/26 08:22:21;;;;;;;17.75;10.27;;;8.20;99.90;;;;;;5114918;27;20043;-47
2022/12/26 08:24:47;;;;;;;14.05;10.88;;;8.20;99.90;;;;;;5121421;27;20075;-51
2022/12/26 08:27:12;;;;;;;16.95;11.02;;;8.20;99.90;;;;;;5117940;27;20058;-46
2022/12/26 08:29:38;;;;;;;16.65;9.95;;;8.30;99.90;;;;;;5121595;27;20486;-46
2022/12/26 08:32:04;;;;;;;17.65;10.80;;;8.40;99.90;;;;;;5135606;27;20097;-48
2022/12/26 08:34:34;;;;;;;18.23;10.52;;;8.40;99.90;;;;;;5131556;27;20043;-45
2022/12/26 08:36:59;;;;;;;13.00;10.43;;;8.40;99.90;;;;;;5133324;27;20046;-48
2022/12/26 08:39:25;;;;;;;16.23;11.25;;;8.50;99.90;;;;;;5121566;27;20046;-47
2022/12/26 08:41:51;;;;;;;16.13;10.88;;;8.50;99.90;;;;;;5119170;27;20054;-45
2022/12/26 08:44:16;;;;;;;21.63;11.48;;;8.50;99.90;;;;;;5126028;27;20086;-46
2022/12/26 08:46:43;;;;;;;15.02;10.40;;;8.60;99.90;;;;;;5115769;27;20051;-49
2022/12/26 08:49:09;;;;;;;17.58;9.85;;;8.60;99.90;;;;;;5135252;27;20043;-46
2022/12/26 08:51:35;;;;;;;13.75;9.80;;;8.50;99.90;;;;;;5118643;27;20542;-48
2022/12/26 08:54:01;;;;;;;15.30;10.07;;;8.50;99.90;;;;;;5121888;27;20043;-47
2022/12/26 08:56:27;;;;;;;18.23;11.27;;;8.60;99.90;;;;;;5109869;27;20460;-48
2022/12/26 08:58:53;;;;;;;17.33;10.40;;;8.50;99.90;;;;;;5118093;27;20050;-47
2022/12/26 09:01:22;;;;;;;17.98;9.95;;;8.60;99.90;;;;;;5133839;27;20501;-49
2022/12/26 09:03:52;;;;;;;11.88;9.35;;;8.60;99.90;;;;;;5138751;27;20374;-47
2022/12/26 09:06:18;;;;;;;16.85;9.63;;;8.60;99.90;;;;;;5117350;27;20149;-49
2022/12/26 09:08:44;;;;;;;16.42;9.82;;;8.50;99.90;;;;;;5138257;27;20257;-47
2022/12/26 09:11:13;;;;;;;18.67;8.50;;;8.70;99.90;;;;;;5105443;27;20481;-47
2022/12/26 09:13:40;;;;;;;14.65;7.88;;;8.50;99.90;;;;;;5127645;27;20125;-48
2022/12/26 09:16:14;;;;;;;14.85;7.55;;;8.60;99.90;;;;;;5125954;27;20049;-47
2022/12/26 09:18:40;;;;;;;11.73;7.28;;;8.60;99.90;;;;;;5128025;27;20329;-47
2022/12/26 09:21:09;;;;;;;15.65;6.90;;;8.50;99.90;;;;;;5131490;27;20072;-47
2022/12/26 09:23:35;;;;;;;25.38;6.97;;;8.40;99.90;;;;;;5124480;27;20043;-47
2022/12/26 09:26:06;;;;;;;19.80;5.43;;;8.40;99.90;;;;;;5101797;27;20111;-45
2022/12/26 09:28:33;;;;;;;18.02;5.68;;;8.20;99.90;;;;;;5135854;27;20043;-46
2022/12/26 09:31:03;;;;;;;16.60;4.07;;;8.10;99.90;;;;;;5119735;27;20438;-47
2022/12/26 09:33:32;;;;;;;17.17;3.65;;;7.90;99.90;;;;;;5129683;27;20407;-47
2022/12/26 09:35:58;;;;;;;17.45;8.35;;;7.80;99.90;;;;;;5119085;27;20145;-46
2022/12/26 09:38:23;;;;;;;19.15;6.85;;;7.70;99.90;;;;;;5100140;27;20063;-47
2022/12/26 09:41:23;;;;;;;27.77;11.05;;;7.40;99.90;;;;;;5118692;27;20398;-48
2022/12/26 09:44:26;;;;;;;30.23;16.33;;;7.30;99.90;;;;;;5118159;27;20112;-47
2022/12/26 09:47:04;;;;;;;26.42;11.32;;;7.20;99.90;;;;;;5100604;27;20130;-48
2022/12/26 09:49:50;;;;;;;24.08;10.02;;;7.10;99.90;;;;;;5096946;27;20112;-46
2022/12/26 09:52:22;;;;;;;34.50;19.65;;;7.00;99.90;;;;;;5116916;27;20042;-45
2022/12/26 09:54:55;;;;;;;22.15;15.77;;;6.90;99.90;;;;;;5123834;27;20046;-46
2022/12/26 09:57:33;;;;;;;25.58;11.85;;;6.80;99.90;;;;;;5117895;27;20043;-46
2022/12/26 10:00:03;;;;;;;19.48;5.38;;;6.80;99.90;;;;;;5121524;27;20043;-48
2022/12/26 10:02:29;;;;;;;10.82;3.50;;;6.80;99.90;;;;;;5119626;27;20227;-47
2022/12/26 10:04:55;;;;;;;19.20;7.68;;;6.80;99.90;;;;;;5137252;27;20050;-45
2022/12/26 10:07:44;;;;;;;18.98;8.60;;;6.80;99.90;;;;;;5101135;27;20702;-44
2022/12/26 10:10:17;;;;;;;18.88;10.73;;;6.80;99.90;;;;;;5117899;27;20039;-47
2022/12/26 10:12:59;;;;;;;23.17;6.97;;;6.90;99.90;;;;;;5125937;27;20092;-51
2022/12/26 10:15:55;;;;;;;20.88;5.47;;;7.00;99.90;;;;;;5136790;27;20039;-47
2022/12/26 10:18:45;;;;;;;31.33;18.50;;;7.10;99.90;;;;;;5122440;27;20496;-45
2022/12/26 10:21:11;;;;;;;20.23;6.95;;;7.10;99.90;;;;;;5118450;27;20068;-48
2022/12/26 10:23:39;;;;;;;19.23;4.70;;;7.10;99.90;;;;;;5123634;27;20051;-44
2022/12/26 10:26:17;;;;;;;22.38;6.18;;;7.20;99.90;;;;;;5113080;27;20046;-46
2022/12/26 10:28:58;;;;;;;21.63;4.68;;;7.10;99.90;;;;;;5102377;27;20062;-44
2022/12/26 10:32:03;;;;;;;14.65;3.63;;;7.10;99.90;;;;;;5108367;27;20145;-46
2022/12/26 10:34:41;;;;;;;18.30;3.42;;;7.10;99.90;;;;;;5119214;27;20073;-45
2022/12/26 10:37:26;;;;;;;14.88;2.85;;;6.90;99.90;;;;;;5127280;27;20081;-45
2022/12/26 10:40:15;;;;;;;21.35;3.00;;;6.90;99.90;;;;;;5115753;27;20055;-45
2022/12/26 10:42:43;;;;;;;16.38;2.90;;;6.90;99.90;;;;;;5120434;27;20131;-44
2022/12/26 10:45:28;;;;;;;15.30;5.18;;;6.80;99.90;;;;;;5127973;27;20136;-46
2022/12/26 10:47:53;;;;;;;19.83;5.63;;;6.80;99.90;;;;;;5124393;27;20058;-44
2022/12/26 10:50:27;;;;;;;17.48;3.33;;;6.80;99.90;;;;;;5118005;27;20038;-46
2022/12/26 10:52:53;;;;;;;21.05;7.63;;;6.90;99.90;;;;;;5118781;27;20117;-45
2022/12/26 10:55:22;;;;;;;10.98;2.90;;;6.90;99.90;;;;;;5126811;27;20053;-45
2022/12/26 10:57:51;;;;;;;20.42;6.10;;;6.90;99.90;;;;;;5126627;27;20309;-45
2022/12/26 11:00:23;;;;;;;16.00;3.63;;;7.00;99.90;;;;;;5110658;27;20053;-46
2022/12/26 11:03:04;;;;;;;19.67;4.32;;;7.00;99.90;;;;;;5115096;27;20039;-46
2022/12/26 11:05:31;;;;;;;19.02;4.25;;;7.10;99.90;;;;;;5122330;27;20135;-44
2022/12/26 11:08:14;;;;;;;24.63;14.40;;;7.00;99.90;;;;;;5116686;27;20130;-47
2022/12/26 11:10:46;;;;;;;19.30;7.60;;;7.10;99.90;;;;;;5115701;27;20055;-50
2022/12/26 11:13:20;;;;;;;16.33;3.45;;;7.10;99.90;;;;;;5125524;27;20043;-49
2022/12/26 11:15:50;;;;;;;12.80;2.53;;;7.10;99.90;;;;;;5128446;27;20043;-48
2022/12/26 11:18:20;;;;;;;13.95;2.63;;;7.10;99.90;;;;;;5116905;27;20238;-47
2022/12/26 11:20:47;;;;;;;12.68;2.90;;;7.10;99.90;;;;;;5115910;27;20062;-46
2022/12/26 11:23:31;;;;;;;16.50;2.75;;;7.10;99.90;;;;;;5121080;27;20130;-49
2022/12/26 11:25:59;;;;;;;11.20;3.17;;;7.10;99.90;;;;;;5128299;27;20047;-48
2022/12/26 11:28:26;;;;;;;16.15;3.10;;;7.20;99.90;;;;;;5122704;27;20045;-46
2022/12/26 11:30:52;;;;;;;12.40;3.53;;;7.20;99.90;;;;;;5110402;27;20336;-47
2022/12/26 11:33:55;;;;;;;16.52;3.13;;;7.20;99.90;;;;;;5136957;27;20564;-52
2022/12/26 11:36:26;;;;;;;12.60;2.65;;;7.20;99.90;;;;;;5117794;27;20047;-52
2022/12/26 11:39:05;;;;;;;18.05;4.40;;;7.20;99.90;;;;;;5111472;27;20146;-46
2022/12/26 11:41:42;;;;;;;15.05;3.80;;;7.30;99.90;;;;;;5115877;27;20154;-46
2022/12/26 11:44:22;;;;;;;18.15;4.35;;;7.30;99.90;;;;;;5117140;27;20039;-48
2022/12/26 11:46:53;;;;;;;23.20;6.20;;;7.30;99.90;;;;;;5123039;27;20057;-48
2022/12/26 11:49:33;;;;;;;13.85;4.28;;;7.20;99.90;;;;;;5126641;27;20096;-48
2022/12/26 11:52:23;;;;;;;17.83;4.82;;;7.10;99.90;;;;;;5097259;27;20400;-45
2022/12/26 11:54:50;;;;;;;15.95;5.47;;;7.00;99.90;;;;;;5114080;27;20047;-49
2022/12/26 11:57:25;;;;;;;19.85;6.47;;;7.00;99.90;;;;;;5134675;27;20503;-46
2022/12/26 11:59:52;;;;;;;23.17;9.93;;;6.90;99.90;;;;;;5131903;27;20079;-49
2022/12/26 12:02:25;;;;;;;20.73;7.32;;;7.00;99.90;;;;;;5114537;27;20034;-47
2022/12/26 12:04:54;;;;;;;16.05;7.00;;;7.00;99.90;;;;;;5121780;27;20373;-46
2022/12/26 12:07:47;;;;;;;21.30;8.20;;;6.90;99.90;;;;;;5125473;27;20130;-49
2022/12/26 12:10:47;;;;;;;26.50;9.75;;;6.80;99.90;;;;;;5127377;27;20430;-47
2022/12/26 12:13:27;;;;;;;23.48;8.93;;;6.90;99.90;;;;;;5134442;27;20070;-45
2022/12/26 12:15:57;;;;;;;12.60;6.50;;;7.00;99.90;;;;;;5119511;27;20047;-46
2022/12/26 12:18:41;;;;;;;21.05;6.95;;;7.00;99.90;;;;;;5133277;27;20039;-48
2022/12/26 12:21:40;;;;;;;23.25;10.20;;;7.00;99.90;;;;;;5131685;27;20091;-45
2022/12/26 12:24:25;;;;;;;19.25;4.28;;;7.00;99.90;;;;;;5117094;27;20119;-45
2022/12/26 12:26:59;;;;;;;15.30;3.50;;;7.00;99.90;;;;;;5114930;27;20043;-47
2022/12/26 12:29:35;;;;;;;19.48;3.75;;;7.00;99.90;;;;;;5114835;27;20051;-44
2022/12/26 12:32:10;;;;;;;27.83;13.00;;;6.90;99.90;;;;;;5116487;27;20183;-46
2022/12/26 12:34:44;;;;;;;22.63;7.35;;;7.00;99.90;;;;;;5101673;27;20145;-45
2022/12/26 12:37:26;;;;;;;29.80;12.90;;;7.00;99.90;;;;;;5138278;27;20086;-44
2022/12/26 12:40:24;;;;;;;21.73;8.10;;;7.00;99.90;;;;;;5128121;27;20430;-48
2022/12/26 12:43:26;;;;;;;23.48;7.65;;;7.00;99.90;;;;;;5118755;27;20046;-44
2022/12/26 12:46:18;;;;;;;26.02;17.80;;;7.10;99.90;;;;;;5135750;27;20519;-47
2022/12/26 12:48:47;;;;;;;28.08;11.13;;;7.10;99.90;;;;;;5140035;27;20035;-46
2022/12/26 12:51:24;;;;;;;11.18;4.43;;;7.00;99.90;;;;;;5124531;27;20039;-44
2022/12/26 12:54:19;;;;;;;34.70;15.63;;;7.00;99.90;;;;;;5139027;27;20082;-49
2022/12/26 12:56:50;;;;;;;25.45;13.35;;;6.90;99.90;;;;;;5107657;27;20388;-44
2022/12/26 12:59:34;;;;;;;24.38;10.55;;;6.90;99.90;;;;;;5120338;27;20051;-45
2022/12/26 13:02:09;;;;;;;25.60;10.00;;;6.90;99.90;;;;;;5137764;27;20067;-46
2022/12/26 13:04:42;;;;;;;22.33;8.63;;;6.90;99.90;;;;;;5126337;27;20042;-45
2022/12/26 13:07:21;;;;;;;32.00;23.45;;;6.80;99.90;;;;;;5134316;27;20042;-49
2022/12/26 13:09:54;;;;;;;48.45;36.83;;;6.80;99.90;;;;;;5127454;27;20080;-46
2022/12/26 13:12:21;;;;;;;;;;;6.80;99.90;;;;;;5118494;27;20051;-46
2022/12/26 13:14:53;;;;;;;19.35;8.32;;;6.90;99.90;;;;;;5119424;27;19972;-47
2022/12/26 13:17:29;;;;;;;22.15;5.05;;;7.00;99.90;;;;;;5127787;27;20484;-48
2022/12/26 13:20:04;;;;;;;32.10;17.25;;;7.00;99.90;;;;;;5132278;27;20050;-45
2022/12/26 13:25:25;;;;;;;12.52;7.90;;;6.90;99.90;;;;;;5125025;27;20526;-46
2022/12/26 13:27:54;;;;;;;25.83;8.93;;;6.90;99.90;;;;;;5130140;27;20500;-45
2022/12/26 13:30:21;;;;;;;19.25;4.25;;;6.90;99.90;;;;;;5118596;27;20070;-45
2022/12/26 13:32:47;;;;;;;40.63;21.42;;;7.00;99.90;;;;;;5121485;27;20183;-47
2022/12/26 13:36:01;;;;;;;68.65;41.90;;;7.00;99.90;;;;;;5121520;27;20046;-46
2022/12/26 13:39:11;;;;;;;34.95;15.70;;;7.00;99.90;;;;;;5041957;28;20415;-46
2022/12/26 13:44:43;;;;;;;42.80;24.58;;;6.80;99.90;;;;;;4953300;28;20486;-47
2022/12/26 13:47:43;;;;;;;59.47;40.20;;;6.80;99.90;;;;;;4953849;28;20481;-49
2022/12/26 13:50:46;;;;;;;34.20;20.45;;;6.70;99.90;;;;;;4916786;28;20920;-47
2022/12/26 13:53:24;;;;;;;31.17;13.77;;;6.70;99.90;;;;;;4933715;29;20043;-47
2022/12/26 13:56:15;;;;;;;13.32;3.92;;;6.70;99.90;;;;;;4931396;29;20197;-44
2022/12/26 13:58:54;;;;;;;18.15;5.28;;;6.60;99.90;;;;;;4932527;29;20059;-45
2022/12/26 14:01:46;;;;;;;15.90;6.63;;;6.50;99.90;;;;;;4931232;29;20060;-47
2022/12/26 14:04:38;;;;;;;21.08;4.53;;;6.50;99.90;;;;;;4932017;29;20134;-45
2022/12/26 14:07:18;;;;;;;15.10;3.95;;;6.40;99.90;;;;;;4933758;29;20251;-46
2022/12/26 14:10:10;;;;;;;19.35;5.45;;;6.40;99.90;;;;;;4931215;29;20068;-46
2022/12/26 14:12:53;;;;;;;14.23;3.13;;;6.40;99.90;;;;;;4929960;29;20086;-48
2022/12/26 14:15:30;;;;;;;15.73;3.60;;;6.30;99.90;;;;;;4962479;28;20084;-44
2022/12/26 14:18:38;;;;;;;18.05;3.47;;;6.20;99.90;;;;;;4974006;28;20401;-45
2022/12/26 14:21:35;;;;;;;16.77;3.10;;;6.20;99.90;;;;;;5006438;28;20152;-45
2022/12/26 14:24:16;;;;;;;18.00;4.75;;;6.20;99.90;;;;;;5062247;27;20082;-45
2022/12/26 14:27:19;;;;;;;22.67;3.47;;;6.20;99.90;;;;;;5123513;27;20034;-45
2022/12/26 14:30:21;;;;;;;11.68;3.78;;;6.20;99.90;;;;;;5118891;27;20050;-44
2022/12/26 14:32:59;;;;;;;19.25;7.72;;;6.20;99.90;;;;;;4995985;28;20058;-48
2022/12/26 14:35:36;;;;;;;13.85;2.92;;;6.10;99.90;;;;;;5018456;28;20073;-46
2022/12/26 14:38:29;;;;;;;15.55;3.65;;;6.10;99.90;;;;;;5018418;28;20376;-48
2022/12/26 14:41:04;;;;;;;26.47;15.77;;;6.00;99.90;;;;;;5016535;28;20049;-45
2022/12/26 14:43:40;;;;;;;20.42;10.50;;;6.00;99.90;;;;;;5020930;28;20785;-46
2022/12/26 14:46:30;;;;;;;31.23;22.50;;;6.00;99.90;;;;;;5012076;28;20496;-44
2022/12/26 14:48:58;;;;;;;34.90;24.88;;;6.00;99.90;;;;;;5023401;28;20053;-50
2022/12/26 14:51:30;;;;;;;33.10;26.95;;;6.00;99.90;;;;;;4997319;28;20052;-45
2022/12/26 14:54:29;;;;;;;18.42;10.80;;;5.90;99.90;;;;;;5026266;28;20056;-45
2022/12/26 14:56:55;;;;;;;14.85;5.65;;;5.90;99.90;;;;;;5030577;28;20654;-48
2022/12/26 14:59:32;;;;;;;21.20;5.20;;;5.80;99.90;;;;;;5020725;28;20051;-44
2022/12/26 15:02:16;;;;;;;13.25;5.63;;;5.70;99.90;;;;;;5016359;28;20638;-45
2022/12/26 15:05:23;;;;;;;16.35;7.28;;;5.60;99.90;;;;;;5018828;28;20053;-44
2022/12/26 15:07:56;;;;;;;24.38;9.88;;;5.60;99.90;;;;;;4984282;28;20054;-46
2022/12/26 15:10:37;;;;;;;22.33;9.60;;;5.50;99.90;;;;;;5037624;28;20449;-45
2022/12/26 15:13:09;;;;;;;24.80;16.23;;;5.40;99.90;;;;;;5039005;28;20095;-50
2022/12/26 15:15:59;;;;;;;24.13;11.85;;;5.30;99.90;;;;;;5057001;28;20050;-45
2022/12/26 15:18:51;;;;;;;17.60;5.22;;;5.20;99.90;;;;;;5062789;28;20500;-44
2022/12/26 15:21:48;;;;;;;324.02;131.73;;;5.20;99.90;;;;;;5050662;28;20113;-48